Spirit Of Washington — WDC9006 — position and weather

sailwx.info

Track history (hours):
 
Tides and Currents Weather Stations Pressure Air Temp Water Temp Dewpoint Dewpoint Depression Visibility Wind Speed Wind Dir Waves Ship Positions

Spirit Of Washington

Owner: SPIRIT CRUISES LLC, Washington, DC. More information available from US FCC via Universal Licensing System and Coast Guard Vessel Documentation Center.

Last reported at 2018-Jul-23 07:29 UTC. Time now 2018-Jul-23 07:28 UTC.
Position N 38°52' W 077°01'.

Length 47 m; draft 2.1 m.

Type: Passenger vessel. MMSI: 367096310.

Date/timePositionNaut miles runAvg speedWind from/ knotsBaromVisibWave heightAir tempDewpointWater temp
2018-Jul-23 07:29N 38°52' W 077°01'0 0.0
2018-Jul-23 06:59N 38°52' W 077°01'0 0.0
2018-Jul-23 06:29N 38°52' W 077°01'0 0.0
2018-Jul-23 05:59N 38°52' W 077°01'0 0.0
2018-Jul-23 05:28N 38°52' W 077°01'0 0.0
2018-Jul-23 04:59N 38°52' W 077°01'0 0.0
2018-Jul-23 04:29N 38°52' W 077°01'0 0.0
2018-Jul-23 03:52N 38°52' W 077°01'0 0.0
2018-Jul-23 03:29N 38°52' W 077°01'0 0.0
2018-Jul-23 02:58N 38°52' W 077°01'0 0.0
2018-Jul-23 02:28N 38°52' W 077°01'0 0.0
2018-Jul-23 01:59N 38°52' W 077°01'0 0.0
2018-Jul-23 01:28N 38°52' W 077°01'0 0.0
2018-Jul-23 00:58N 38°52' W 077°01'0 0.0
2018-Jul-23 00:28N 38°52' W 077°01'0 0.0
2018-Jul-22 23:59N 38°52' W 077°01'0 0.0
2018-Jul-22 23:29N 38°52' W 077°01'0 0.0
2018-Jul-22 23:00N 38°52' W 077°01'0 0.0
2018-Jul-22 22:30N 38°52' W 077°01'0 0.0
2018-Jul-22 21:59N 38°52' W 077°01'0 0.0
2018-Jul-22 21:30N 38°52' W 077°01'0 0.0
2018-Jul-22 20:59N 38°52' W 077°01'0 0.0
2018-Jul-22 20:29N 38°52' W 077°01'0 0.0
2018-Jul-22 19:59N 38°52' W 077°01'0 0.0
2018-Jul-22 19:27N 38°52' W 077°01'0 0.0
2018-Jul-22 19:00N 38°52' W 077°01'0 0.0
2018-Jul-22 18:30N 38°52' W 077°01'0 0.0
2018-Jul-22 17:56N 38°52' W 077°01'0 0.0
2018-Jul-22 17:26N 38°52' W 077°01'2 4.7
2018-Jul-22 17:00N 38°50' W 077°01'4 7.7
2018-Jul-22 16:29N 38°46' W 077°02'4 8.4
2018-Jul-22 15:59N 38°51' W 077°01'2 1.7
2018-Jul-22 15:00N 38°52' W 077°01'0 0.0
2018-Jul-22 14:30N 38°52' W 077°01'0 0.0
2018-Jul-22 14:00N 38°52' W 077°01'0 0.0
2018-Jul-22 13:30N 38°52' W 077°01'0 0.0
2018-Jul-22 13:00N 38°52' W 077°01'0 0.0
2018-Jul-22 12:30N 38°52' W 077°01'0 0.0
2018-Jul-22 12:00N 38°52' W 077°01'0 0.0
2018-Jul-22 11:30N 38°52' W 077°01'0 0.0
2018-Jul-22 11:00N 38°52' W 077°01'0 0.0
2018-Jul-22 10:30N 38°52' W 077°01'0 0.0
2018-Jul-22 10:00N 38°52' W 077°01'0 0.0
2018-Jul-22 09:30N 38°52' W 077°01'0 0.0
2018-Jul-22 09:00N 38°52' W 077°01'0 0.0
2018-Jul-22 08:30N 38°52' W 077°01'0 0.0
2018-Jul-22 08:00N 38°52' W 077°01'0 0.0
2018-Jul-22 07:30N 38°52' W 077°01'0 0.0
2018-Jul-22 07:00N 38°52' W 077°01'0 0.0
2018-Jul-22 06:30N 38°52' W 077°01'0 0.0
2018-Jul-22 06:00N 38°52' W 077°01'0 0.0
2018-Jul-22 05:30N 38°52' W 077°01'0 0.0
2018-Jul-22 05:00N 38°52' W 077°01'0 0.0
2018-Jul-22 04:30N 38°52' W 077°01'0 0.0
2018-Jul-22 04:00N 38°52' W 077°01'0 0.0
2018-Jul-22 03:29N 38°52' W 077°01'0 0.1
2018-Jul-22 02:59N 38°52' W 077°01'3 4.9
2018-Jul-22 02:27N 38°50' W 077°02'2 4.6
2018-Jul-22 02:00N 38°48' W 077°02'0 0.8
2018-Jul-22 01:29N 38°48' W 077°02'3 6.6
2018-Jul-22 01:00N 38°51' W 077°02'0 0.6
2018-Jul-22 00:29N 38°51' W 077°01'1 2.6
2018-Jul-21 23:59N 38°52' W 077°01'0 0.0
2018-Jul-21 23:29N 38°52' W 077°01'0 0.0
2018-Jul-21 22:59N 38°52' W 077°01'0 0.0
2018-Jul-21 22:29N 38°52' W 077°01'0 0.0
2018-Jul-21 21:59N 38°52' W 077°01'0 0.0
2018-Jul-21 21:17N 38°52' W 077°01'0 0.0
2018-Jul-21 20:59N 38°52' W 077°01'0 0.0
2018-Jul-21 20:30N 38°52' W 077°01'0 0.0
2018-Jul-21 20:00N 38°52' W 077°01'0 0.0
2018-Jul-21 19:27N 38°52' W 077°01'0 0.0
2018-Jul-21 19:00N 38°52' W 077°01'0 0.0
2018-Jul-21 18:27N 38°52' W 077°01'0 0.0
2018-Jul-21 18:00N 38°52' W 077°01'1 0.7
2018-Jul-21 17:11N 38°52' W 077°01'2 8.1
2018-Jul-21 16:59N 38°50' W 077°02'3 6.9
2018-Jul-21 16:29N 38°47' W 077°02'3 7.0
2018-Jul-21 15:59N 38°50' W 077°02'2 4.0
2018-Jul-21 15:28N 38°52' W 077°01'0 0.0
2018-Jul-21 14:58N 38°52' W 077°01'0 0.0
2018-Jul-21 14:28N 38°52' W 077°01'0 0.0
2018-Jul-21 13:28N 38°52' W 077°01'0 0.0
2018-Jul-21 12:58N 38°52' W 077°01'0 0.0
2018-Jul-21 12:29N 38°52' W 077°01'0 0.0
2018-Jul-21 11:59N 38°52' W 077°01'0 0.0
2018-Jul-21 11:26N 38°52' W 077°01'0 0.0
2018-Jul-21 10:59N 38°52' W 077°01'0 0.0
2018-Jul-21 10:29N 38°52' W 077°01'0 0.0
2018-Jul-21 09:59N 38°52' W 077°01'0 0.0
2018-Jul-21 09:29N 38°52' W 077°01'0 0.0
2018-Jul-21 08:59N 38°52' W 077°01'0 0.0
2018-Jul-21 08:29N 38°52' W 077°01'0 0.0
2018-Jul-21 07:59N 38°52' W 077°01'0 0.0
2018-Jul-21 07:26N 38°52' W 077°01'0 0.0
2018-Jul-21 06:59N 38°52' W 077°01'0 0.0
2018-Jul-21 06:29N 38°52' W 077°01'0 0.0
2018-Jul-21 05:59N 38°52' W 077°01'0 0.0
2018-Jul-21 05:29N 38°52' W 077°01'0 0.0
2018-Jul-21 04:59N 38°52' W 077°01'0 0.0
2018-Jul-21 04:29N 38°52' W 077°01'0 0.0
2018-Jul-21 03:59N 38°52' W 077°01'0 0.0
2018-Jul-21 03:29N 38°52' W 077°01'0 0.0
2018-Jul-21 02:56N 38°52' W 077°01'1 2.4
2018-Jul-21 02:30N 38°51' W 077°01'4 6.9
2018-Jul-21 01:58N 38°48' W 077°02'1 2.9
2018-Jul-21 01:29N 38°49' W 077°02'3 6.2
2018-Jul-21 00:59N 38°52' W 077°02'1 2.0
2018-Jul-21 00:28N 38°52' W 077°01'1 1.5
2018-Jul-20 23:59N 38°52' W 077°01'0 0.0
2018-Jul-20 23:20N 38°52' W 077°01'0 0.0
2018-Jul-20 22:59N 38°52' W 077°01'0 0.0
2018-Jul-20 22:26N 38°52' W 077°01'0 0.0
2018-Jul-20 21:59N 38°52' W 077°01'0 0.0
2018-Jul-20 21:29N 38°52' W 077°01'0 0.0
2018-Jul-20 20:59N 38°52' W 077°01'0 0.0
2018-Jul-20 20:27N 38°52' W 077°01'0 0.0
2018-Jul-20 19:58N 38°52' W 077°01'0 0.0
2018-Jul-20 19:28N 38°52' W 077°01'0 0.0
2018-Jul-20 18:58N 38°52' W 077°01'0 0.0
2018-Jul-20 18:31N 38°52' W 077°01'0 0.1
2018-Jul-20 17:55N 38°52' W 077°01'2 4.1
2018-Jul-20 17:29N 38°51' W 077°01'2 3.3
2018-Jul-20 16:59N 38°49' W 077°02'3 5.9
2018-Jul-20 16:29N 38°52' W 077°02'1 1.2
2018-Jul-20 16:00N 38°52' W 077°01'0 0.0
2018-Jul-20 15:30N 38°52' W 077°01'0 0.0
2018-Jul-20 15:00N 38°52' W 077°01'0 0.0
2018-Jul-20 14:30N 38°52' W 077°01'0 0.0
2018-Jul-20 14:00N 38°52' W 077°01'0 0.0
2018-Jul-20 13:29N 38°52' W 077°01'0 0.0
2018-Jul-20 12:59N 38°52' W 077°01'0 0.0
2018-Jul-20 12:27N 38°52' W 077°01'0 0.0
2018-Jul-20 11:58N 38°52' W 077°01'0 0.0
2018-Jul-20 11:28N 38°52' W 077°01'0 0.0
2018-Jul-20 10:58N 38°52' W 077°01'0 0.0
2018-Jul-20 10:28N 38°52' W 077°01'0 0.0
2018-Jul-20 09:58N 38°52' W 077°01'0 0.0
2018-Jul-20 09:28N 38°52' W 077°01'0 0.0
2018-Jul-20 08:58N 38°52' W 077°01'0 0.0
2018-Jul-20 08:28N 38°52' W 077°01'0 0.0
2018-Jul-20 07:58N 38°52' W 077°01'0 0.0
2018-Jul-20 07:28N 38°52' W 077°01'0 0.0
2018-Jul-20 06:55N 38°52' W 077°01'0 0.0
2018-Jul-20 06:25N 38°52' W 077°01'0 0.0
2018-Jul-20 05:49N 38°52' W 077°01'0 0.0
2018-Jul-20 05:19N 38°52' W 077°01'0 0.0
2018-Jul-20 04:58N 38°52' W 077°01'0 0.0
2018-Jul-20 04:28N 38°52' W 077°01'0 0.0
2018-Jul-20 03:55N 38°52' W 077°01'0 0.0
2018-Jul-20 03:28N 38°52' W 077°01'0 0.0
2018-Jul-20 02:58N 38°52' W 077°01'0 0.0
2018-Jul-20 02:29N 38°52' W 077°01'0 0.0
2018-Jul-20 02:00N 38°52' W 077°01'1 1.2
2018-Jul-20 01:30N 38°52' W 077°01'2 4.3
2018-Jul-20 00:57N 38°50' W 077°02'3 7.1
2018-Jul-20 00:30N 38°46' W 077°02'2 4.9
2018-Jul-20 00:00N 38°49' W 077°02'3 6.5
2018-Jul-19 23:30N 38°52' W 077°01'1 1.6
2018-Jul-19 22:58N 38°52' W 077°01'0 0.0
2018-Jul-19 22:28N 38°52' W 077°01'0 0.0
2018-Jul-19 22:01N 38°52' W 077°01'0 0.0
2018-Jul-19 21:30N 38°52' W 077°01'0 0.0
2018-Jul-19 21:00N 38°52' W 077°01'0 0.0
2018-Jul-19 20:30N 38°52' W 077°01'0 0.0
2018-Jul-19 19:59N 38°52' W 077°01'0 0.0
2018-Jul-19 19:29N 38°52' W 077°01'0 0.0
2018-Jul-19 19:00N 38°52' W 077°01'0 0.0
2018-Jul-19 18:29N 38°52' W 077°01'0 0.0
2018-Jul-19 17:59N 38°52' W 077°01'0 0.0
2018-Jul-19 17:26N 38°52' W 077°01'0 0.0
2018-Jul-19 17:00N 38°52' W 077°01'0 0.0
2018-Jul-19 16:27N 38°52' W 077°01'0 0.0
2018-Jul-19 15:59N 38°52' W 077°01'0 0.0
2018-Jul-19 15:29N 38°52' W 077°01'0 0.0
2018-Jul-19 14:59N 38°52' W 077°01'0 0.0
2018-Jul-19 13:56N 38°52' W 077°01'0 0.0
2018-Jul-19 13:30N 38°52' W 077°01'0 0.0
2018-Jul-19 12:59N 38°52' W 077°01'0 0.0
2018-Jul-19 12:26N 38°52' W 077°01'0 0.0
2018-Jul-19 11:59N 38°52' W 077°01'0 0.0
2018-Jul-19 11:29N 38°52' W 077°01'0 0.0
2018-Jul-19 10:59N 38°52' W 077°01'0 0.0
2018-Jul-19 10:26N 38°52' W 077°01'0 0.0
2018-Jul-19 09:59N 38°52' W 077°01'0 0.0
2018-Jul-19 09:29N 38°52' W 077°01'0 0.0
2018-Jul-19 08:59N 38°52' W 077°01'0 0.0
2018-Jul-19 08:29N 38°52' W 077°01'0 0.0
2018-Jul-19 07:59N 38°52' W 077°01'0 0.0
2018-Jul-19 07:29N 38°52' W 077°01'0 0.0
2018-Jul-19 06:59N 38°52' W 077°01'0 0.0
2018-Jul-19 06:29N 38°52' W 077°01'0 0.0
2018-Jul-19 05:59N 38°52' W 077°01'0 0.0
2018-Jul-19 05:27N 38°52' W 077°01'0 0.0
2018-Jul-19 04:59N 38°52' W 077°01'0 0.0
2018-Jul-19 04:29N 38°52' W 077°01'0 0.0
2018-Jul-19 04:00N 38°52' W 077°01'0 0.0
2018-Jul-19 03:29N 38°52' W 077°01'0 0.0
2018-Jul-19 02:59N 38°52' W 077°01'0 0.0
2018-Jul-19 02:30N 38°52' W 077°01'0 0.1
2018-Jul-19 01:59N 38°52' W 077°01'1 1.7
2018-Jul-19 01:28N 38°52' W 077°00'3 5.5
2018-Jul-19 00:56N 38°49' W 077°02'3 6.5
2018-Jul-19 00:30N 38°46' W 077°02'1 1.8
2018-Jul-18 23:59N 38°47' W 077°02'3 6.9
2018-Jul-18 23:29N 38°51' W 077°01'2 3.6
2018-Jul-18 22:59N 38°52' W 077°01'0 0.0
2018-Jul-18 22:27N 38°52' W 077°01'0 0.0
2018-Jul-18 22:00N 38°52' W 077°01'0 0.0
2018-Jul-18 21:29N 38°52' W 077°01'0 0.0
2018-Jul-18 20:59N 38°52' W 077°01'0 0.0
2018-Jul-18 20:27N 38°52' W 077°01'0 0.0
2018-Jul-18 20:00N 38°52' W 077°01'0 0.0
2018-Jul-18 19:29N 38°52' W 077°01'0 0.0
2018-Jul-18 18:59N 38°52' W 077°01'0 0.0
2018-Jul-18 18:29N 38°52' W 077°01'0 0.0
2018-Jul-18 17:59N 38°52' W 077°01'3 5.1
2018-Jul-18 17:29N 38°50' W 077°02'3 4.5
2018-Jul-18 16:55N 38°47' W 077°02'3 6.2
2018-Jul-18 16:29N 38°50' W 077°02'3 5.2
2018-Jul-18 16:00N 38°52' W 077°01'0 0.0
2018-Jul-18 15:30N 38°52' W 077°01'0 0.0
2018-Jul-18 15:00N 38°52' W 077°01'0 0.0
2018-Jul-18 14:30N 38°52' W 077°01'0 0.0
2018-Jul-18 13:30N 38°52' W 077°01'0 0.0
2018-Jul-18 13:00N 38°52' W 077°01'0 0.0
2018-Jul-18 12:30N 38°52' W 077°01'0 0.0
2018-Jul-18 12:00N 38°52' W 077°01'0 0.0
2018-Jul-18 11:27N 38°52' W 077°01'0 0.0
2018-Jul-18 10:30N 38°52' W 077°01'0 0.0
2018-Jul-18 10:00N 38°52' W 077°01'0 0.0
2018-Jul-18 09:30N 38°52' W 077°01'0 0.0
2018-Jul-18 09:00N 38°52' W 077°01'0 0.0
2018-Jul-18 08:30N 38°52' W 077°01'0 0.0
2018-Jul-18 08:00N 38°52' W 077°01'0 0.0
2018-Jul-18 07:28N 38°52' W 077°01'0 0.0
2018-Jul-18 06:58N 38°52' W 077°01'0 0.0
2018-Jul-18 06:28N 38°52' W 077°01'0 0.0
2018-Jul-18 05:58N 38°52' W 077°01'0 0.0
2018-Jul-18 05:28N 38°52' W 077°01'0 0.0
2018-Jul-18 04:58N 38°52' W 077°01'0 0.0
2018-Jul-18 04:28N 38°52' W 077°01'0 0.0
2018-Jul-18 03:58N 38°52' W 077°01'0 0.0
2018-Jul-18 03:28N 38°52' W 077°01'0 0.0
2018-Jul-18 02:58N 38°52' W 077°01'0 0.0
2018-Jul-18 02:28N 38°52' W 077°01'0 0.0
2018-Jul-18 01:59N 38°52' W 077°01'0 0.0
2018-Jul-18 01:29N 38°52' W 077°01'1 1.3
2018-Jul-18 01:00N 38°52' W 077°02'1 2.1
2018-Jul-18 00:30N 38°52' W 077°01'0 0.5
2018-Jul-17 23:58N 38°52' W 077°00'1 1.4
2018-Jul-17 23:28N 38°51' W 077°01'1 1.6
2018-Jul-17 22:52N 38°52' W 077°01'0 0.0
2018-Jul-17 22:25N 38°52' W 077°01'0 0.0
2018-Jul-17 21:58N 38°52' W 077°01'0 0.0
2018-Jul-17 21:28N 38°52' W 077°01'0 0.0
2018-Jul-17 20:58N 38°52' W 077°01'0 0.0
2018-Jul-17 20:25N 38°52' W 077°01'0 0.0
2018-Jul-17 19:58N 38°52' W 077°01'0 0.0
2018-Jul-17 19:25N 38°52' W 077°01'0 0.0
2018-Jul-17 18:58N 38°52' W 077°01'0 0.0
2018-Jul-17 18:28N 38°52' W 077°01'0 0.0
2018-Jul-17 17:58N 38°52' W 077°01'2 4.6
2018-Jul-17 17:30N 38°50' W 077°02'3 5.2
2018-Jul-17 16:58N 38°48' W 077°02'3 6.1
2018-Jul-17 16:30N 38°50' W 077°02'2 4.1
2018-Jul-17 15:59N 38°52' W 077°01'0 0.0
2018-Jul-17 15:20N 38°52' W 077°01'0 0.0
2018-Jul-17 14:58N 38°52' W 077°01'0 0.0
2018-Jul-17 14:30N 38°52' W 077°01'0 0.0
2018-Jul-17 14:00N 38°52' W 077°01'0 0.0
2018-Jul-17 13:30N 38°52' W 077°01'0 0.0
2018-Jul-17 12:57N 38°52' W 077°01'0 0.0
2018-Jul-17 12:28N 38°52' W 077°01'0 0.0
2018-Jul-17 11:59N 38°52' W 077°01'0 0.0
2018-Jul-17 11:26N 38°52' W 077°01'0 0.0
2018-Jul-17 10:59N 38°52' W 077°01'0 0.0
2018-Jul-17 10:29N 38°52' W 077°01'0 0.0
2018-Jul-17 09:59N 38°52' W 077°01'0 0.0
2018-Jul-17 09:29N 38°52' W 077°01'0 0.0
2018-Jul-17 08:59N 38°52' W 077°01'0 0.0
2018-Jul-17 08:29N 38°52' W 077°01'0 0.0
2018-Jul-17 07:59N 38°52' W 077°01'0 0.0
2018-Jul-17 07:29N 38°52' W 077°01'0 0.0
2018-Jul-17 06:59N 38°52' W 077°01'0 0.0
2018-Jul-17 06:29N 38°52' W 077°01'0 0.0
2018-Jul-17 05:59N 38°52' W 077°01'0 0.0
2018-Jul-17 05:29N 38°52' W 077°01'0 0.0
2018-Jul-17 04:59N 38°52' W 077°01'0 0.0
2018-Jul-17 04:29N 38°52' W 077°01'0 0.0
2018-Jul-17 03:59N 38°52' W 077°01'0 0.0
2018-Jul-17 03:24N 38°52' W 077°01'0 0.0
2018-Jul-17 03:00N 38°52' W 077°01'0 0.0
2018-Jul-17 02:30N 38°52' W 077°01'0 0.0
2018-Jul-17 01:57N 38°52' W 077°01'0 0.0
2018-Jul-17 01:30N 38°52' W 077°01'0 0.0
2018-Jul-17 01:00N 38°52' W 077°01'0 0.0
2018-Jul-17 00:28N 38°52' W 077°01'0 0.0
2018-Jul-16 23:28N 38°52' W 077°01'0 0.0
2018-Jul-16 23:00N 38°52' W 077°01'0 0.0
2018-Jul-16 22:30N 38°52' W 077°01'0 0.0
2018-Jul-16 22:00N 38°52' W 077°01'0 0.0
2018-Jul-16 21:30N 38°52' W 077°01'0 0.0
2018-Jul-16 21:00N 38°52' W 077°01'0 0.0
2018-Jul-16 20:30N 38°52' W 077°01'0 0.0
2018-Jul-16 20:00N 38°52' W 077°01'0 0.0
2018-Jul-16 19:28N 38°52' W 077°01'0 0.0
2018-Jul-16 18:58N 38°52' W 077°01'0 0.0
2018-Jul-16 18:25N 38°52' W 077°01'0 0.0
2018-Jul-16 17:58N 38°52' W 077°01'0 0.0
2018-Jul-16 17:25N 38°52' W 077°01'0 0.0
2018-Jul-16 16:58N 38°52' W 077°01'0 0.0
2018-Jul-16 16:30N 38°52' W 077°01'0 0.0
2018-Jul-16 15:57N 38°52' W 077°01'0 0.0
2018-Jul-16 15:30N 38°52' W 077°01'0 0.0
2018-Jul-16 14:54N 38°52' W 077°01'0 0.0
2018-Jul-16 14:27N 38°52' W 077°01'0 0.0
2018-Jul-16 13:57N 38°52' W 077°01'0 0.0
2018-Jul-16 13:27N 38°52' W 077°01'0 0.0
2018-Jul-16 12:57N 38°52' W 077°01'0 0.0
2018-Jul-16 12:30N 38°52' W 077°01'0 0.0
2018-Jul-16 12:00N 38°52' W 077°01'0 0.0
2018-Jul-16 11:29N 38°52' W 077°01'0 0.0
2018-Jul-16 10:59N 38°52' W 077°01'0 0.0
2018-Jul-16 10:30N 38°52' W 077°01'0 0.0
2018-Jul-16 09:57N 38°52' W 077°01'0 0.0
2018-Jul-16 09:29N 38°52' W 077°01'0 0.0
2018-Jul-16 08:59N 38°52' W 077°01'0 0.0
2018-Jul-16 08:29N 38°52' W 077°01'0 0.0
2018-Jul-16 07:59N 38°52' W 077°01'0 0.0
2018-Jul-16 07:29N 38°52' W 077°01'0 0.0
2018-Jul-16 06:59N 38°52' W 077°01'0 0.0
2018-Jul-16 06:30N 38°52' W 077°01'0 0.0
2018-Jul-16 06:00N 38°52' W 077°01'0 0.0
2018-Jul-16 05:30N 38°52' W 077°01'0 0.0
2018-Jul-16 05:00N 38°52' W 077°01'0 0.0
2018-Jul-16 04:30N 38°52' W 077°01'0 0.0
2018-Jul-16 04:00N 38°52' W 077°01'0 0.0
2018-Jul-16 03:30N 38°52' W 077°01'0 0.0
2018-Jul-16 02:57N 38°52' W 077°01'0 0.0
2018-Jul-16 02:30N 38°52' W 077°01'0 0.0
2018-Jul-16 02:00N 38°52' W 077°01'0 0.0
2018-Jul-16 01:27N 38°52' W 077°01'0 0.0
2018-Jul-16 01:00N 38°52' W 077°01'0 0.0
2018-Jul-16 00:28N 38°52' W 077°01'0 0.0
2018-Jul-15 23:58N 38°52' W 077°01'0 0.0
2018-Jul-15 23:28N 38°52' W 077°01'0 0.0
2018-Jul-15 22:58N 38°52' W 077°01'0 0.0
2018-Jul-15 22:25N 38°52' W 077°01'0 0.0
2018-Jul-15 21:58N 38°52' W 077°01'0 0.0
2018-Jul-15 21:25N 38°52' W 077°01'0 0.0
2018-Jul-15 20:58N 38°52' W 077°01'0 0.0
2018-Jul-15 20:25N 38°52' W 077°01'0 0.0
2018-Jul-15 19:55N 38°52' W 077°01'0 0.0
2018-Jul-15 19:28N 38°52' W 077°01'0 0.0
2018-Jul-15 18:57N 38°52' W 077°01'0 0.0
2018-Jul-15 18:24N 38°52' W 077°01'0 0.0
2018-Jul-15 18:00N 38°52' W 077°01'0 0.0
2018-Jul-15 17:30N 38°52' W 077°01'1 2.7
2018-Jul-15 16:59N 38°51' W 077°01'3 5.6
2018-Jul-15 16:28N 38°48' W 077°02'3 5.7
2018-Jul-15 16:00N 38°51' W 077°01'2 2.6
2018-Jul-15 15:25N 38°52' W 077°01'0 0.0
2018-Jul-15 14:25N 38°52' W 077°01'0 0.0
2018-Jul-15 13:55N 38°52' W 077°01'0 0.0
2018-Jul-15 13:25N 38°52' W 077°01'0 0.0
2018-Jul-15 13:00N 38°52' W 077°01'0 0.0
2018-Jul-15 12:26N 38°52' W 077°01'0 0.0
2018-Jul-15 11:59N 38°52' W 077°01'0 0.0
2018-Jul-15 11:26N 38°52' W 077°01'0 0.0
2018-Jul-15 10:59N 38°52' W 077°01'0 0.0
2018-Jul-15 10:29N 38°52' W 077°01'0 0.0
2018-Jul-15 09:59N 38°52' W 077°01'0 0.0
2018-Jul-15 09:29N 38°52' W 077°01'0 0.0
2018-Jul-15 08:59N 38°52' W 077°01'0 0.0
2018-Jul-15 08:29N 38°52' W 077°01'0 0.0
2018-Jul-15 07:56N 38°52' W 077°01'0 0.0
2018-Jul-15 07:26N 38°52' W 077°01'0 0.0
2018-Jul-15 07:00N 38°52' W 077°01'0 0.0
2018-Jul-15 06:29N 38°52' W 077°01'0 0.0
2018-Jul-15 05:59N 38°52' W 077°01'0 0.0
2018-Jul-15 05:29N 38°52' W 077°01'0 0.0
2018-Jul-15 04:59N 38°52' W 077°01'0 0.0
2018-Jul-15 04:26N 38°52' W 077°01'0 0.0
2018-Jul-15 03:59N 38°52' W 077°01'0 0.0
2018-Jul-15 03:29N 38°52' W 077°01'0 0.0
2018-Jul-15 02:59N 38°52' W 077°01'2 3.4
2018-Jul-15 02:29N 38°51' W 077°01'3 6.5
2018-Jul-15 02:00N 38°48' W 077°02'2 3.7
2018-Jul-15 01:29N 38°49' W 077°02'3 5.0
2018-Jul-15 00:59N 38°52' W 077°02'1 1.3
2018-Jul-15 00:27N 38°52' W 077°01'1 2.0
2018-Jul-15 00:00N 38°52' W 077°01'0 0.0
2018-Jul-14 23:30N 38°52' W 077°01'0 0.0
2018-Jul-14 23:01N 38°52' W 077°01'0 0.0
2018-Jul-14 22:30N 38°52' W 077°01'0 0.0
2018-Jul-14 21:59N 38°52' W 077°01'0 0.0
2018-Jul-14 21:29N 38°52' W 077°01'0 0.0
2018-Jul-14 20:59N 38°52' W 077°01'0 0.0
2018-Jul-14 20:29N 38°52' W 077°01'0 0.0
2018-Jul-14 20:00N 38°52' W 077°01'0 0.0
2018-Jul-14 19:29N 38°52' W 077°01'0 0.0
2018-Jul-14 18:59N 38°52' W 077°01'0 0.0
2018-Jul-14 18:26N 38°52' W 077°01'0 0.0
2018-Jul-14 17:59N 38°52' W 077°01'0 0.1
2018-Jul-14 17:27N 38°52' W 077°01'3 5.4
2018-Jul-14 17:00N 38°50' W 077°02'3 5.1
2018-Jul-14 16:29N 38°47' W 077°02'4 8.1
2018-Jul-14 16:00N 38°51' W 077°01'1 2.1
2018-Jul-14 15:25N 38°52' W 077°01'0 0.0
2018-Jul-14 14:58N 38°52' W 077°01'0 0.0
2018-Jul-14 14:28N 38°52' W 077°01'0 0.0
2018-Jul-14 13:28N 38°52' W 077°01'0 0.0
2018-Jul-14 12:55N 38°52' W 077°01'0 0.0
2018-Jul-14 12:28N 38°52' W 077°01'0 0.0
2018-Jul-14 12:00N 38°52' W 077°01'0 0.0
2018-Jul-14 11:29N 38°52' W 077°01'0 0.0
2018-Jul-14 10:59N 38°52' W 077°01'0 0.0
2018-Jul-14 10:30N 38°52' W 077°01'0 0.0
2018-Jul-14 09:59N 38°52' W 077°01'0 0.0
2018-Jul-14 09:29N 38°52' W 077°01'0 0.0
2018-Jul-14 08:59N 38°52' W 077°01'0 0.0
2018-Jul-14 08:29N 38°52' W 077°01'0 0.0
2018-Jul-14 07:59N 38°52' W 077°01'0 0.0
2018-Jul-14 07:29N 38°52' W 077°01'0 0.0
2018-Jul-14 06:59N 38°52' W 077°01'0 0.0
2018-Jul-14 06:30N 38°52' W 077°01'0 0.0
2018-Jul-14 06:00N 38°52' W 077°01'0 0.0
2018-Jul-14 05:30N 38°52' W 077°01'0 0.0
2018-Jul-14 05:00N 38°52' W 077°01'0 0.0
2018-Jul-14 04:30N 38°52' W 077°01'0 0.0
2018-Jul-14 04:00N 38°52' W 077°01'0 0.0
2018-Jul-14 03:30N 38°52' W 077°01'0 0.0
2018-Jul-14 03:01N 38°52' W 077°01'2 3.7
2018-Jul-14 02:29N 38°51' W 077°01'3 6.1
2018-Jul-14 01:58N 38°47' W 077°02'3 5.9
2018-Jul-14 01:30N 38°50' W 077°02'1 1.8
2018-Jul-14 00:54N 38°51' W 077°01'1 2.1
2018-Jul-14 00:30N 38°52' W 077°01'0 0.7
2018-Jul-13 23:59N 38°52' W 077°01'0 0.0
2018-Jul-13 23:30N 38°52' W 077°01'0 0.0
2018-Jul-13 22:58N 38°52' W 077°01'0 0.0
2018-Jul-13 22:28N 38°52' W 077°01'0 0.0
2018-Jul-13 21:57N 38°52' W 077°01'0 0.0
2018-Jul-13 21:30N 38°52' W 077°01'0 0.0
2018-Jul-13 21:01N 38°52' W 077°01'0 0.0
2018-Jul-13 20:25N 38°52' W 077°01'0 0.0
2018-Jul-13 19:58N 38°52' W 077°01'0 0.0
2018-Jul-13 19:30N 38°52' W 077°01'0 0.0
2018-Jul-13 18:57N 38°52' W 077°01'0 0.0
2018-Jul-13 18:31N 38°52' W 077°01'0 0.2
2018-Jul-13 17:52N 38°52' W 077°01'3 7.0
2018-Jul-13 17:25N 38°49' W 077°02'2 4.9
2018-Jul-13 17:00N 38°47' W 077°02'4 7.2
2018-Jul-13 16:26N 38°51' W 077°01'1 2.7
2018-Jul-13 16:00N 38°52' W 077°01'0 0.0
2018-Jul-13 15:29N 38°52' W 077°01'0 0.0
2018-Jul-13 14:59N 38°52' W 077°01'0 0.0
2018-Jul-13 14:26N 38°52' W 077°01'0 0.0
2018-Jul-13 13:27N 38°52' W 077°01'0 0.0
2018-Jul-13 12:57N 38°52' W 077°01'0 0.0
2018-Jul-13 12:30N 38°52' W 077°01'0 0.0
2018-Jul-13 11:58N 38°52' W 077°01'0 0.0
2018-Jul-13 11:30N 38°52' W 077°01'0 0.0
2018-Jul-13 10:54N 38°52' W 077°01'0 0.0
2018-Jul-13 10:30N 38°52' W 077°01'0 0.0
2018-Jul-13 10:00N 38°52' W 077°01'0 0.0
2018-Jul-13 09:30N 38°52' W 077°01'0 0.0
2018-Jul-13 09:00N 38°52' W 077°01'0 0.0
2018-Jul-13 08:30N 38°52' W 077°01'0 0.0
2018-Jul-13 07:57N 38°52' W 077°01'  
Track history (hours):
 
Tides and Currents Weather Stations Pressure Air Temp Water Temp Dewpoint Dewpoint Depression Visibility Wind Speed Wind Dir Waves Ship Positions

Spirit Of Washington

Owner: SPIRIT CRUISES LLC, Washington, DC. More information available from US FCC via Universal Licensing System and Coast Guard Vessel Documentation Center.

Last reported at 2018-Jul-23 07:29 UTC. Time now 2018-Jul-23 07:28 UTC.
Position N 38°52' W 077°01'.

Length 47 m; draft 2.1 m.

Type: Passenger vessel. MMSI: 367096310.

Date/timePositionNaut miles runAvg speedWind from/ knotsBaromVisibWave heightAir tempDewpointWater temp
2018-Jul-23 07:29N 38°52' W 077°01'0 0.0
2018-Jul-23 06:59N 38°52' W 077°01'0 0.0
2018-Jul-23 06:29N 38°52' W 077°01'0 0.0
2018-Jul-23 05:59N 38°52' W 077°01'0 0.0
2018-Jul-23 05:28N 38°52' W 077°01'0 0.0
2018-Jul-23 04:59N 38°52' W 077°01'0 0.0
2018-Jul-23 04:29N 38°52' W 077°01'0 0.0
2018-Jul-23 03:52N 38°52' W 077°01'0 0.0
2018-Jul-23 03:29N 38°52' W 077°01'0 0.0
2018-Jul-23 02:58N 38°52' W 077°01'0 0.0
2018-Jul-23 02:28N 38°52' W 077°01'0 0.0
2018-Jul-23 01:59N 38°52' W 077°01'0 0.0
2018-Jul-23 01:28N 38°52' W 077°01'0 0.0
2018-Jul-23 00:58N 38°52' W 077°01'0 0.0
2018-Jul-23 00:28N 38°52' W 077°01'0 0.0
2018-Jul-22 23:59N 38°52' W 077°01'0 0.0
2018-Jul-22 23:29N 38°52' W 077°01'0 0.0
2018-Jul-22 23:00N 38°52' W 077°01'0 0.0
2018-Jul-22 22:30N 38°52' W 077°01'0 0.0
2018-Jul-22 21:59N 38°52' W 077°01'0 0.0
2018-Jul-22 21:30N 38°52' W 077°01'0 0.0
2018-Jul-22 20:59N 38°52' W 077°01'0 0.0
2018-Jul-22 20:29N 38°52' W 077°01'0 0.0
2018-Jul-22 19:59N 38°52' W 077°01'0 0.0
2018-Jul-22 19:27N 38°52' W 077°01'0 0.0
2018-Jul-22 19:00N 38°52' W 077°01'0 0.0
2018-Jul-22 18:30N 38°52' W 077°01'0 0.0
2018-Jul-22 17:56N 38°52' W 077°01'0 0.0
2018-Jul-22 17:26N 38°52' W 077°01'2 4.7
2018-Jul-22 17:00N 38°50' W 077°01'4 7.7
2018-Jul-22 16:29N 38°46' W 077°02'4 8.4
2018-Jul-22 15:59N 38°51' W 077°01'2 1.7
2018-Jul-22 15:00N 38°52' W 077°01'0 0.0
2018-Jul-22 14:30N 38°52' W 077°01'0 0.0
2018-Jul-22 14:00N 38°52' W 077°01'0 0.0
2018-Jul-22 13:30N 38°52' W 077°01'0 0.0
2018-Jul-22 13:00N 38°52' W 077°01'0 0.0
2018-Jul-22 12:30N 38°52' W 077°01'0 0.0
2018-Jul-22 12:00N 38°52' W 077°01'0 0.0
2018-Jul-22 11:30N 38°52' W 077°01'0 0.0
2018-Jul-22 11:00N 38°52' W 077°01'0 0.0
2018-Jul-22 10:30N 38°52' W 077°01'0 0.0
2018-Jul-22 10:00N 38°52' W 077°01'0 0.0
2018-Jul-22 09:30N 38°52' W 077°01'0 0.0
2018-Jul-22 09:00N 38°52' W 077°01'0 0.0
2018-Jul-22 08:30N 38°52' W 077°01'0 0.0
2018-Jul-22 08:00N 38°52' W 077°01'0 0.0
2018-Jul-22 07:30N 38°52' W 077°01'0 0.0
2018-Jul-22 07:00N 38°52' W 077°01'0 0.0
2018-Jul-22 06:30N 38°52' W 077°01'0 0.0
2018-Jul-22 06:00N 38°52' W 077°01'0 0.0
2018-Jul-22 05:30N 38°52' W 077°01'0 0.0
2018-Jul-22 05:00N 38°52' W 077°01'0 0.0
2018-Jul-22 04:30N 38°52' W 077°01'0 0.0
2018-Jul-22 04:00N 38°52' W 077°01'0 0.0
2018-Jul-22 03:29N 38°52' W 077°01'0 0.1
2018-Jul-22 02:59N 38°52' W 077°01'3 4.9
2018-Jul-22 02:27N 38°50' W 077°02'2 4.6
2018-Jul-22 02:00N 38°48' W 077°02'0 0.8
2018-Jul-22 01:29N 38°48' W 077°02'3 6.6
2018-Jul-22 01:00N 38°51' W 077°02'0 0.6
2018-Jul-22 00:29N 38°51' W 077°01'1 2.6
2018-Jul-21 23:59N 38°52' W 077°01'0 0.0
2018-Jul-21 23:29N 38°52' W 077°01'0 0.0
2018-Jul-21 22:59N 38°52' W 077°01'0 0.0
2018-Jul-21 22:29N 38°52' W 077°01'0 0.0
2018-Jul-21 21:59N 38°52' W 077°01'0 0.0
2018-Jul-21 21:17N 38°52' W 077°01'0 0.0
2018-Jul-21 20:59N 38°52' W 077°01'0 0.0
2018-Jul-21 20:30N 38°52' W 077°01'0 0.0
2018-Jul-21 20:00N 38°52' W 077°01'0 0.0
2018-Jul-21 19:27N 38°52' W 077°01'0 0.0
2018-Jul-21 19:00N 38°52' W 077°01'0 0.0
2018-Jul-21 18:27N 38°52' W 077°01'0 0.0
2018-Jul-21 18:00N 38°52' W 077°01'1 0.7
2018-Jul-21 17:11N 38°52' W 077°01'2 8.1
2018-Jul-21 16:59N 38°50' W 077°02'3 6.9
2018-Jul-21 16:29N 38°47' W 077°02'3 7.0
2018-Jul-21 15:59N 38°50' W 077°02'2 4.0
2018-Jul-21 15:28N 38°52' W 077°01'0 0.0
2018-Jul-21 14:58N 38°52' W 077°01'0 0.0
2018-Jul-21 14:28N 38°52' W 077°01'0 0.0
2018-Jul-21 13:28N 38°52' W 077°01'0 0.0
2018-Jul-21 12:58N 38°52' W 077°01'0 0.0
2018-Jul-21 12:29N 38°52' W 077°01'0 0.0
2018-Jul-21 11:59N 38°52' W 077°01'0 0.0
2018-Jul-21 11:26N 38°52' W 077°01'0 0.0
2018-Jul-21 10:59N 38°52' W 077°01'0 0.0
2018-Jul-21 10:29N 38°52' W 077°01'0 0.0
2018-Jul-21 09:59N 38°52' W 077°01'0 0.0
2018-Jul-21 09:29N 38°52' W 077°01'0 0.0
2018-Jul-21 08:59N 38°52' W 077°01'0 0.0
2018-Jul-21 08:29N 38°52' W 077°01'0 0.0
2018-Jul-21 07:59N 38°52' W 077°01'0 0.0
2018-Jul-21 07:26N 38°52' W 077°01'0 0.0
2018-Jul-21 06:59N 38°52' W 077°01'0 0.0
2018-Jul-21 06:29N 38°52' W 077°01'0 0.0
2018-Jul-21 05:59N 38°52' W 077°01'0 0.0
2018-Jul-21 05:29N 38°52' W 077°01'0 0.0
2018-Jul-21 04:59N 38°52' W 077°01'0 0.0
2018-Jul-21 04:29N 38°52' W 077°01'0 0.0
2018-Jul-21 03:59N 38°52' W 077°01'0 0.0
2018-Jul-21 03:29N 38°52' W 077°01'0 0.0
2018-Jul-21 02:56N 38°52' W 077°01'1 2.4
2018-Jul-21 02:30N 38°51' W 077°01'4 6.9
2018-Jul-21 01:58N 38°48' W 077°02'1 2.9
2018-Jul-21 01:29N 38°49' W 077°02'3 6.2
2018-Jul-21 00:59N 38°52' W 077°02'1 2.0
2018-Jul-21 00:28N 38°52' W 077°01'1 1.5
2018-Jul-20 23:59N 38°52' W 077°01'0 0.0
2018-Jul-20 23:20N 38°52' W 077°01'0 0.0
2018-Jul-20 22:59N 38°52' W 077°01'0 0.0
2018-Jul-20 22:26N 38°52' W 077°01'0 0.0
2018-Jul-20 21:59N 38°52' W 077°01'0 0.0
2018-Jul-20 21:29N 38°52' W 077°01'0 0.0
2018-Jul-20 20:59N 38°52' W 077°01'0 0.0
2018-Jul-20 20:27N 38°52' W 077°01'0 0.0
2018-Jul-20 19:58N 38°52' W 077°01'0 0.0
2018-Jul-20 19:28N 38°52' W 077°01'0 0.0
2018-Jul-20 18:58N 38°52' W 077°01'0 0.0
2018-Jul-20 18:31N 38°52' W 077°01'0 0.1
2018-Jul-20 17:55N 38°52' W 077°01'2 4.1
2018-Jul-20 17:29N 38°51' W 077°01'2 3.3
2018-Jul-20 16:59N 38°49' W 077°02'3 5.9
2018-Jul-20 16:29N 38°52' W 077°02'1 1.2
2018-Jul-20 16:00N 38°52' W 077°01'0 0.0
2018-Jul-20 15:30N 38°52' W 077°01'0 0.0
2018-Jul-20 15:00N 38°52' W 077°01'0 0.0
2018-Jul-20 14:30N 38°52' W 077°01'0 0.0
2018-Jul-20 14:00N 38°52' W 077°01'0 0.0
2018-Jul-20 13:29N 38°52' W 077°01'0 0.0
2018-Jul-20 12:59N 38°52' W 077°01'0 0.0
2018-Jul-20 12:27N 38°52' W 077°01'0 0.0
2018-Jul-20 11:58N 38°52' W 077°01'0 0.0
2018-Jul-20 11:28N 38°52' W 077°01'0 0.0
2018-Jul-20 10:58N 38°52' W 077°01'0 0.0
2018-Jul-20 10:28N 38°52' W 077°01'0 0.0
2018-Jul-20 09:58N 38°52' W 077°01'0 0.0
2018-Jul-20 09:28N 38°52' W 077°01'0 0.0
2018-Jul-20 08:58N 38°52' W 077°01'0 0.0
2018-Jul-20 08:28N 38°52' W 077°01'0 0.0
2018-Jul-20 07:58N 38°52' W 077°01'0 0.0
2018-Jul-20 07:28N 38°52' W 077°01'0 0.0
2018-Jul-20 06:55N 38°52' W 077°01'0 0.0
2018-Jul-20 06:25N 38°52' W 077°01'0 0.0
2018-Jul-20 05:49N 38°52' W 077°01'0 0.0
2018-Jul-20 05:19N 38°52' W 077°01'0 0.0
2018-Jul-20 04:58N 38°52' W 077°01'0 0.0
2018-Jul-20 04:28N 38°52' W 077°01'0 0.0
2018-Jul-20 03:55N 38°52' W 077°01'0 0.0
2018-Jul-20 03:28N 38°52' W 077°01'0 0.0
2018-Jul-20 02:58N 38°52' W 077°01'0 0.0
2018-Jul-20 02:29N 38°52' W 077°01'0 0.0
2018-Jul-20 02:00N 38°52' W 077°01'1 1.2
2018-Jul-20 01:30N 38°52' W 077°01'2 4.3
2018-Jul-20 00:57N 38°50' W 077°02'3 7.1
2018-Jul-20 00:30N 38°46' W 077°02'2 4.9
2018-Jul-20 00:00N 38°49' W 077°02'3 6.5
2018-Jul-19 23:30N 38°52' W 077°01'1 1.6
2018-Jul-19 22:58N 38°52' W 077°01'0 0.0
2018-Jul-19 22:28N 38°52' W 077°01'0 0.0
2018-Jul-19 22:01N 38°52' W 077°01'0 0.0
2018-Jul-19 21:30N 38°52' W 077°01'0 0.0
2018-Jul-19 21:00N 38°52' W 077°01'0 0.0
2018-Jul-19 20:30N 38°52' W 077°01'0 0.0
2018-Jul-19 19:59N 38°52' W 077°01'0 0.0
2018-Jul-19 19:29N 38°52' W 077°01'0 0.0
2018-Jul-19 19:00N 38°52' W 077°01'0 0.0
2018-Jul-19 18:29N 38°52' W 077°01'0 0.0
2018-Jul-19 17:59N 38°52' W 077°01'0 0.0
2018-Jul-19 17:26N 38°52' W 077°01'0 0.0
2018-Jul-19 17:00N 38°52' W 077°01'0 0.0
2018-Jul-19 16:27N 38°52' W 077°01'0 0.0
2018-Jul-19 15:59N 38°52' W 077°01'0 0.0
2018-Jul-19 15:29N 38°52' W 077°01'0 0.0
2018-Jul-19 14:59N 38°52' W 077°01'0 0.0
2018-Jul-19 13:56N 38°52' W 077°01'0 0.0
2018-Jul-19 13:30N 38°52' W 077°01'0 0.0
2018-Jul-19 12:59N 38°52' W 077°01'0 0.0
2018-Jul-19 12:26N 38°52' W 077°01'0 0.0
2018-Jul-19 11:59N 38°52' W 077°01'0 0.0
2018-Jul-19 11:29N 38°52' W 077°01'0 0.0
2018-Jul-19 10:59N 38°52' W 077°01'0 0.0
2018-Jul-19 10:26N 38°52' W 077°01'0 0.0
2018-Jul-19 09:59N 38°52' W 077°01'0 0.0
2018-Jul-19 09:29N 38°52' W 077°01'0 0.0
2018-Jul-19 08:59N 38°52' W 077°01'0 0.0
2018-Jul-19 08:29N 38°52' W 077°01'0 0.0
2018-Jul-19 07:59N 38°52' W 077°01'0 0.0
2018-Jul-19 07:29N 38°52' W 077°01'0 0.0
2018-Jul-19 06:59N 38°52' W 077°01'0 0.0
2018-Jul-19 06:29N 38°52' W 077°01'0 0.0
2018-Jul-19 05:59N 38°52' W 077°01'0 0.0
2018-Jul-19 05:27N 38°52' W 077°01'0 0.0
2018-Jul-19 04:59N 38°52' W 077°01'0 0.0
2018-Jul-19 04:29N 38°52' W 077°01'0 0.0
2018-Jul-19 04:00N 38°52' W 077°01'0 0.0
2018-Jul-19 03:29N 38°52' W 077°01'0 0.0
2018-Jul-19 02:59N 38°52' W 077°01'0 0.0
2018-Jul-19 02:30N 38°52' W 077°01'0 0.1
2018-Jul-19 01:59N 38°52' W 077°01'1 1.7
2018-Jul-19 01:28N 38°52' W 077°00'3 5.5
2018-Jul-19 00:56N 38°49' W 077°02'3 6.5
2018-Jul-19 00:30N 38°46' W 077°02'1 1.8
2018-Jul-18 23:59N 38°47' W 077°02'3 6.9
2018-Jul-18 23:29N 38°51' W 077°01'2 3.6
2018-Jul-18 22:59N 38°52' W 077°01'0 0.0
2018-Jul-18 22:27N 38°52' W 077°01'0 0.0
2018-Jul-18 22:00N 38°52' W 077°01'0 0.0
2018-Jul-18 21:29N 38°52' W 077°01'0 0.0
2018-Jul-18 20:59N 38°52' W 077°01'0 0.0
2018-Jul-18 20:27N 38°52' W 077°01'0 0.0
2018-Jul-18 20:00N 38°52' W 077°01'0 0.0
2018-Jul-18 19:29N 38°52' W 077°01'0 0.0
2018-Jul-18 18:59N 38°52' W 077°01'0 0.0
2018-Jul-18 18:29N 38°52' W 077°01'0 0.0
2018-Jul-18 17:59N 38°52' W 077°01'3 5.1
2018-Jul-18 17:29N 38°50' W 077°02'3 4.5
2018-Jul-18 16:55N 38°47' W 077°02'3 6.2
2018-Jul-18 16:29N 38°50' W 077°02'3 5.2
2018-Jul-18 16:00N 38°52' W 077°01'0 0.0
2018-Jul-18 15:30N 38°52' W 077°01'0 0.0
2018-Jul-18 15:00N 38°52' W 077°01'0 0.0
2018-Jul-18 14:30N 38°52' W 077°01'0 0.0
2018-Jul-18 13:30N 38°52' W 077°01'0 0.0
2018-Jul-18 13:00N 38°52' W 077°01'0 0.0
2018-Jul-18 12:30N 38°52' W 077°01'0 0.0
2018-Jul-18 12:00N 38°52' W 077°01'0 0.0
2018-Jul-18 11:27N 38°52' W 077°01'0 0.0
2018-Jul-18 10:30N 38°52' W 077°01'0 0.0
2018-Jul-18 10:00N 38°52' W 077°01'0 0.0
2018-Jul-18 09:30N 38°52' W 077°01'0 0.0
2018-Jul-18 09:00N 38°52' W 077°01'0 0.0
2018-Jul-18 08:30N 38°52' W 077°01'0 0.0
2018-Jul-18 08:00N 38°52' W 077°01'0 0.0
2018-Jul-18 07:28N 38°52' W 077°01'0 0.0
2018-Jul-18 06:58N 38°52' W 077°01'0 0.0
2018-Jul-18 06:28N 38°52' W 077°01'0 0.0
2018-Jul-18 05:58N 38°52' W 077°01'0 0.0
2018-Jul-18 05:28N 38°52' W 077°01'0 0.0
2018-Jul-18 04:58N 38°52' W 077°01'0 0.0
2018-Jul-18 04:28N 38°52' W 077°01'0 0.0
2018-Jul-18 03:58N 38°52' W 077°01'0 0.0
2018-Jul-18 03:28N 38°52' W 077°01'0 0.0
2018-Jul-18 02:58N 38°52' W 077°01'0 0.0
2018-Jul-18 02:28N 38°52' W 077°01'0 0.0
2018-Jul-18 01:59N 38°52' W 077°01'0 0.0
2018-Jul-18 01:29N 38°52' W 077°01'1 1.3
2018-Jul-18 01:00N 38°52' W 077°02'1 2.1
2018-Jul-18 00:30N 38°52' W 077°01'0 0.5
2018-Jul-17 23:58N 38°52' W 077°00'1 1.4
2018-Jul-17 23:28N 38°51' W 077°01'1 1.6
2018-Jul-17 22:52N 38°52' W 077°01'0 0.0
2018-Jul-17 22:25N 38°52' W 077°01'0 0.0
2018-Jul-17 21:58N 38°52' W 077°01'0 0.0
2018-Jul-17 21:28N 38°52' W 077°01'0 0.0
2018-Jul-17 20:58N 38°52' W 077°01'0 0.0
2018-Jul-17 20:25N 38°52' W 077°01'0 0.0
2018-Jul-17 19:58N 38°52' W 077°01'0 0.0
2018-Jul-17 19:25N 38°52' W 077°01'0 0.0
2018-Jul-17 18:58N 38°52' W 077°01'0 0.0
2018-Jul-17 18:28N 38°52' W 077°01'0 0.0
2018-Jul-17 17:58N 38°52' W 077°01'2 4.6
2018-Jul-17 17:30N 38°50' W 077°02'3 5.2
2018-Jul-17 16:58N 38°48' W 077°02'3 6.1
2018-Jul-17 16:30N 38°50' W 077°02'2 4.1
2018-Jul-17 15:59N 38°52' W 077°01'0 0.0
2018-Jul-17 15:20N 38°52' W 077°01'0 0.0
2018-Jul-17 14:58N 38°52' W 077°01'0 0.0
2018-Jul-17 14:30N 38°52' W 077°01'0 0.0
2018-Jul-17 14:00N 38°52' W 077°01'0 0.0
2018-Jul-17 13:30N 38°52' W 077°01'0 0.0
2018-Jul-17 12:57N 38°52' W 077°01'0 0.0
2018-Jul-17 12:28N 38°52' W 077°01'0 0.0
2018-Jul-17 11:59N 38°52' W 077°01'0 0.0
2018-Jul-17 11:26N 38°52' W 077°01'0 0.0
2018-Jul-17 10:59N 38°52' W 077°01'0 0.0
2018-Jul-17 10:29N 38°52' W 077°01'0 0.0
2018-Jul-17 09:59N 38°52' W 077°01'0 0.0
2018-Jul-17 09:29N 38°52' W 077°01'0 0.0
2018-Jul-17 08:59N 38°52' W 077°01'0 0.0
2018-Jul-17 08:29N 38°52' W 077°01'0 0.0
2018-Jul-17 07:59N 38°52' W 077°01'0 0.0
2018-Jul-17 07:29N 38°52' W 077°01'0 0.0
2018-Jul-17 06:59N 38°52' W 077°01'0 0.0
2018-Jul-17 06:29N 38°52' W 077°01'0 0.0
2018-Jul-17 05:59N 38°52' W 077°01'0 0.0
2018-Jul-17 05:29N 38°52' W 077°01'0 0.0
2018-Jul-17 04:59N 38°52' W 077°01'0 0.0
2018-Jul-17 04:29N 38°52' W 077°01'0 0.0
2018-Jul-17 03:59N 38°52' W 077°01'0 0.0
2018-Jul-17 03:24N 38°52' W 077°01'0 0.0
2018-Jul-17 03:00N 38°52' W 077°01'0 0.0
2018-Jul-17 02:30N 38°52' W 077°01'0 0.0
2018-Jul-17 01:57N 38°52' W 077°01'0 0.0
2018-Jul-17 01:30N 38°52' W 077°01'0 0.0
2018-Jul-17 01:00N 38°52' W 077°01'0 0.0
2018-Jul-17 00:28N 38°52' W 077°01'0 0.0
2018-Jul-16 23:28N 38°52' W 077°01'0 0.0
2018-Jul-16 23:00N 38°52' W 077°01'0 0.0
2018-Jul-16 22:30N 38°52' W 077°01'0 0.0
2018-Jul-16 22:00N 38°52' W 077°01'0 0.0
2018-Jul-16 21:30N 38°52' W 077°01'0 0.0
2018-Jul-16 21:00N 38°52' W 077°01'0 0.0
2018-Jul-16 20:30N 38°52' W 077°01'0 0.0
2018-Jul-16 20:00N 38°52' W 077°01'0 0.0
2018-Jul-16 19:28N 38°52' W 077°01'0 0.0
2018-Jul-16 18:58N 38°52' W 077°01'0 0.0
2018-Jul-16 18:25N 38°52' W 077°01'0 0.0
2018-Jul-16 17:58N 38°52' W 077°01'0 0.0
2018-Jul-16 17:25N 38°52' W 077°01'0 0.0
2018-Jul-16 16:58N 38°52' W 077°01'0 0.0
2018-Jul-16 16:30N 38°52' W 077°01'0 0.0
2018-Jul-16 15:57N 38°52' W 077°01'0 0.0
2018-Jul-16 15:30N 38°52' W 077°01'0 0.0
2018-Jul-16 14:54N 38°52' W 077°01'0 0.0
2018-Jul-16 14:27N 38°52' W 077°01'0 0.0
2018-Jul-16 13:57N 38°52' W 077°01'0 0.0
2018-Jul-16 13:27N 38°52' W 077°01'0 0.0
2018-Jul-16 12:57N 38°52' W 077°01'0 0.0
2018-Jul-16 12:30N 38°52' W 077°01'0 0.0
2018-Jul-16 12:00N 38°52' W 077°01'0 0.0
2018-Jul-16 11:29N 38°52' W 077°01'0 0.0
2018-Jul-16 10:59N 38°52' W 077°01'0 0.0
2018-Jul-16 10:30N 38°52' W 077°01'0 0.0
2018-Jul-16 09:57N 38°52' W 077°01'0 0.0
2018-Jul-16 09:29N 38°52' W 077°01'0 0.0
2018-Jul-16 08:59N 38°52' W 077°01'0 0.0
2018-Jul-16 08:29N 38°52' W 077°01'0 0.0
2018-Jul-16 07:59N 38°52' W 077°01'0 0.0
2018-Jul-16 07:29N 38°52' W 077°01'0 0.0
2018-Jul-16 06:59N 38°52' W 077°01'0 0.0
2018-Jul-16 06:30N 38°52' W 077°01'0 0.0
2018-Jul-16 06:00N 38°52' W 077°01'0 0.0
2018-Jul-16 05:30N 38°52' W 077°01'0 0.0
2018-Jul-16 05:00N 38°52' W 077°01'0 0.0
2018-Jul-16 04:30N 38°52' W 077°01'0 0.0
2018-Jul-16 04:00N 38°52' W 077°01'0 0.0
2018-Jul-16 03:30N 38°52' W 077°01'0 0.0
2018-Jul-16 02:57N 38°52' W 077°01'0 0.0
2018-Jul-16 02:30N 38°52' W 077°01'0 0.0
2018-Jul-16 02:00N 38°52' W 077°01'0 0.0
2018-Jul-16 01:27N 38°52' W 077°01'0 0.0
2018-Jul-16 01:00N 38°52' W 077°01'0 0.0
2018-Jul-16 00:28N 38°52' W 077°01'0 0.0
2018-Jul-15 23:58N 38°52' W 077°01'0 0.0
2018-Jul-15 23:28N 38°52' W 077°01'0 0.0
2018-Jul-15 22:58N 38°52' W 077°01'0 0.0
2018-Jul-15 22:25N 38°52' W 077°01'0 0.0
2018-Jul-15 21:58N 38°52' W 077°01'0 0.0
2018-Jul-15 21:25N 38°52' W 077°01'0 0.0
2018-Jul-15 20:58N 38°52' W 077°01'0 0.0
2018-Jul-15 20:25N 38°52' W 077°01'0 0.0
2018-Jul-15 19:55N 38°52' W 077°01'0 0.0
2018-Jul-15 19:28N 38°52' W 077°01'0 0.0
2018-Jul-15 18:57N 38°52' W 077°01'0 0.0
2018-Jul-15 18:24N 38°52' W 077°01'0 0.0
2018-Jul-15 18:00N 38°52' W 077°01'0 0.0
2018-Jul-15 17:30N 38°52' W 077°01'1 2.7
2018-Jul-15 16:59N 38°51' W 077°01'3 5.6
2018-Jul-15 16:28N 38°48' W 077°02'3 5.7
2018-Jul-15 16:00N 38°51' W 077°01'2 2.6
2018-Jul-15 15:25N 38°52' W 077°01'0 0.0
2018-Jul-15 14:25N 38°52' W 077°01'0 0.0
2018-Jul-15 13:55N 38°52' W 077°01'0 0.0
2018-Jul-15 13:25N 38°52' W 077°01'0 0.0
2018-Jul-15 13:00N 38°52' W 077°01'0 0.0
2018-Jul-15 12:26N 38°52' W 077°01'0 0.0
2018-Jul-15 11:59N 38°52' W 077°01'0 0.0
2018-Jul-15 11:26N 38°52' W 077°01'0 0.0
2018-Jul-15 10:59N 38°52' W 077°01'0 0.0
2018-Jul-15 10:29N 38°52' W 077°01'0 0.0
2018-Jul-15 09:59N 38°52' W 077°01'0 0.0
2018-Jul-15 09:29N 38°52' W 077°01'0 0.0
2018-Jul-15 08:59N 38°52' W 077°01'0 0.0
2018-Jul-15 08:29N 38°52' W 077°01'0 0.0
2018-Jul-15 07:56N 38°52' W 077°01'0 0.0
2018-Jul-15 07:26N 38°52' W 077°01'0 0.0
2018-Jul-15 07:00N 38°52' W 077°01'0 0.0
2018-Jul-15 06:29N 38°52' W 077°01'0 0.0
2018-Jul-15 05:59N 38°52' W 077°01'0 0.0
2018-Jul-15 05:29N 38°52' W 077°01'0 0.0
2018-Jul-15 04:59N 38°52' W 077°01'0 0.0
2018-Jul-15 04:26N 38°52' W 077°01'0 0.0
2018-Jul-15 03:59N 38°52' W 077°01'0 0.0
2018-Jul-15 03:29N 38°52' W 077°01'0 0.0
2018-Jul-15 02:59N 38°52' W 077°01'2 3.4
2018-Jul-15 02:29N 38°51' W 077°01'3 6.5
2018-Jul-15 02:00N 38°48' W 077°02'2 3.7
2018-Jul-15 01:29N 38°49' W 077°02'3 5.0
2018-Jul-15 00:59N 38°52' W 077°02'1 1.3
2018-Jul-15 00:27N 38°52' W 077°01'1 2.0
2018-Jul-15 00:00N 38°52' W 077°01'0 0.0
2018-Jul-14 23:30N 38°52' W 077°01'0 0.0
2018-Jul-14 23:01N 38°52' W 077°01'0 0.0
2018-Jul-14 22:30N 38°52' W 077°01'0 0.0
2018-Jul-14 21:59N 38°52' W 077°01'0 0.0
2018-Jul-14 21:29N 38°52' W 077°01'0 0.0
2018-Jul-14 20:59N 38°52' W 077°01'0 0.0
2018-Jul-14 20:29N 38°52' W 077°01'0 0.0
2018-Jul-14 20:00N 38°52' W 077°01'0 0.0
2018-Jul-14 19:29N 38°52' W 077°01'0 0.0
2018-Jul-14 18:59N 38°52' W 077°01'0 0.0
2018-Jul-14 18:26N 38°52' W 077°01'0 0.0
2018-Jul-14 17:59N 38°52' W 077°01'0 0.1
2018-Jul-14 17:27N 38°52' W 077°01'3 5.4
2018-Jul-14 17:00N 38°50' W 077°02'3 5.1
2018-Jul-14 16:29N 38°47' W 077°02'4 8.1
2018-Jul-14 16:00N 38°51' W 077°01'1 2.1
2018-Jul-14 15:25N 38°52' W 077°01'0 0.0
2018-Jul-14 14:58N 38°52' W 077°01'0 0.0
2018-Jul-14 14:28N 38°52' W 077°01'0 0.0
2018-Jul-14 13:28N 38°52' W 077°01'0 0.0
2018-Jul-14 12:55N 38°52' W 077°01'0 0.0
2018-Jul-14 12:28N 38°52' W 077°01'0 0.0
2018-Jul-14 12:00N 38°52' W 077°01'0 0.0
2018-Jul-14 11:29N 38°52' W 077°01'0 0.0
2018-Jul-14 10:59N 38°52' W 077°01'0 0.0
2018-Jul-14 10:30N 38°52' W 077°01'0 0.0
2018-Jul-14 09:59N 38°52' W 077°01'0 0.0
2018-Jul-14 09:29N 38°52' W 077°01'0 0.0
2018-Jul-14 08:59N 38°52' W 077°01'0 0.0
2018-Jul-14 08:29N 38°52' W 077°01'0 0.0
2018-Jul-14 07:59N 38°52' W 077°01'0 0.0
2018-Jul-14 07:29N 38°52' W 077°01'0 0.0
2018-Jul-14 06:59N 38°52' W 077°01'0 0.0
2018-Jul-14 06:30N 38°52' W 077°01'0 0.0
2018-Jul-14 06:00N 38°52' W 077°01'0 0.0
2018-Jul-14 05:30N 38°52' W 077°01'0 0.0
2018-Jul-14 05:00N 38°52' W 077°01'0 0.0
2018-Jul-14 04:30N 38°52' W 077°01'0 0.0
2018-Jul-14 04:00N 38°52' W 077°01'0 0.0
2018-Jul-14 03:30N 38°52' W 077°01'0 0.0
2018-Jul-14 03:01N 38°52' W 077°01'2 3.7
2018-Jul-14 02:29N 38°51' W 077°01'3 6.1
2018-Jul-14 01:58N 38°47' W 077°02'3 5.9
2018-Jul-14 01:30N 38°50' W 077°02'1 1.8
2018-Jul-14 00:54N 38°51' W 077°01'1 2.1
2018-Jul-14 00:30N 38°52' W 077°01'0 0.7
2018-Jul-13 23:59N 38°52' W 077°01'0 0.0
2018-Jul-13 23:30N 38°52' W 077°01'0 0.0
2018-Jul-13 22:58N 38°52' W 077°01'0 0.0
2018-Jul-13 22:28N 38°52' W 077°01'0 0.0
2018-Jul-13 21:57N 38°52' W 077°01'0 0.0
2018-Jul-13 21:30N 38°52' W 077°01'0 0.0
2018-Jul-13 21:01N 38°52' W 077°01'0 0.0
2018-Jul-13 20:25N 38°52' W 077°01'0 0.0
2018-Jul-13 19:58N 38°52' W 077°01'0 0.0
2018-Jul-13 19:30N 38°52' W 077°01'0 0.0
2018-Jul-13 18:57N 38°52' W 077°01'0 0.0
2018-Jul-13 18:31N 38°52' W 077°01'0 0.2
2018-Jul-13 17:52N 38°52' W 077°01'3 7.0
2018-Jul-13 17:25N 38°49' W 077°02'2 4.9
2018-Jul-13 17:00N 38°47' W 077°02'4 7.2
2018-Jul-13 16:26N 38°51' W 077°01'1 2.7
2018-Jul-13 16:00N 38°52' W 077°01'0 0.0
2018-Jul-13 15:29N 38°52' W 077°01'0 0.0
2018-Jul-13 14:59N 38°52' W 077°01'0 0.0
2018-Jul-13 14:26N 38°52' W 077°01'0 0.0
2018-Jul-13 13:27N 38°52' W 077°01'0 0.0
2018-Jul-13 12:57N 38°52' W 077°01'0 0.0
2018-Jul-13 12:30N 38°52' W 077°01'0 0.0
2018-Jul-13 11:58N 38°52' W 077°01'0 0.0
2018-Jul-13 11:30N 38°52' W 077°01'0 0.0
2018-Jul-13 10:54N 38°52' W 077°01'0 0.0
2018-Jul-13 10:30N 38°52' W 077°01'0 0.0
2018-Jul-13 10:00N 38°52' W 077°01'0 0.0
2018-Jul-13 09:30N 38°52' W 077°01'0 0.0
2018-Jul-13 09:00N 38°52' W 077°01'0 0.0
2018-Jul-13 08:30N 38°52' W 077°01'0 0.0
2018-Jul-13 07:57N 38°52' W 077°01'  

Dump ship's entire track history